Time;durP1;ratioP1;P1;durP2;ratioP2;P2;SDS_P1;SDS_P2;PMS_P1;PMS_P2;Temp;Humidity;BMP_temperature;BMP_pressure;BME280_temperature;BME280_humidity;BME280_pressure;Samples;Min_cycle;Max_cycle;Signal;HPM_P1;HPM_P2
2022/05/06 00:00:55;;;;;;;;;;;;;;;30.35;23.42;101501.22;5060627;28;1029;-35
2022/05/06 00:03:20;;;;;;;;;;;;;;;29.62;23.97;101506.13;5056194;28;770;-34
2022/05/06 00:05:46;;;;;;;;;;;;;;;29.20;24.42;101513.66;5062790;28;1918;-33
2022/05/06 00:08:11;;;;;;;;;;;;;;;29.16;24.55;101504.22;5055322;28;870;-37
2022/05/06 00:10:36;;;;;;;;;;;;;;;29.04;24.71;101506.47;5061024;28;806;-38
2022/05/06 00:13:02;;;;;;;;;;;;;;;29.38;24.68;101509.84;5061945;28;914;-33
2022/05/06 00:15:27;;;;;;;;;;;;;;;29.08;25.16;101507.81;5055683;28;829;-32
2022/05/06 00:17:52;;;;;;;;;;;;;;;29.37;24.81;101518.97;5056269;28;826;-35
2022/05/06 00:20:18;;;;;;;;;;;;;;;30.03;24.01;101520.38;5061139;28;873;-37
2022/05/06 00:22:44;;;;;;;;;;;;;;;30.12;23.81;101521.09;5055856;28;865;-34
2022/05/06 00:25:09;;;;;;;;;;;;;;;30.09;23.85;101533.19;5062199;28;1965;-36
2022/05/06 00:27:37;;;;;;;;;;;;;;;30.28;23.63;101531.00;5055365;28;864;-38
2022/05/06 00:30:03;;;;;;;;;;;;;;;30.25;23.35;101532.19;5055367;28;817;-34
2022/05/06 00:32:28;;;;;;;;;;;;;;;29.78;23.79;101532.25;5055649;28;1447;-37
2022/05/06 00:34:55;;;;;;;;;;;;;;;29.89;24.06;101525.56;5059887;28;833;-33
2022/05/06 00:37:20;;;;;;;;;;;;;;;30.40;23.29;101524.06;5070637;28;799;-36
2022/05/06 00:39:46;;;;;;;;;;;;;;;30.55;23.32;101523.22;5055761;28;907;-36
2022/05/06 00:42:11;;;;;;;;;;;;;;;29.84;23.65;101525.28;5056051;28;853;-38
2022/05/06 00:44:36;;;;;;;;;;;;;;;29.57;24.27;101527.47;5056799;28;1910;-36
2022/05/06 00:47:02;;;;;;;;;;;;;;;29.65;24.31;101527.44;5059006;28;791;-36
2022/05/06 00:49:27;;;;;;;;;;;;;;;30.06;23.85;101518.09;5047352;28;1382;-34
2022/05/06 00:51:52;;;;;;;;;;;;;;;30.26;23.55;101524.91;5078432;28;844;-37
2022/05/06 00:54:21;;;;;;;;;;;;;;;29.85;23.92;101526.94;5078421;28;798;-40
2022/05/06 00:56:46;;;;;;;;;;;;;;;29.50;24.42;101524.66;5061456;28;818;-36
2022/05/06 00:59:12;;;;;;;;;;;;;;;29.50;24.29;101513.81;5070452;28;985;-34
2022/05/06 01:01:38;;;;;;;;;;;;;;;29.88;24.15;101515.72;5065089;28;1243;-35
2022/05/06 01:04:04;;;;;;;;;;;;;;;29.97;24.04;101512.94;5065189;28;1910;-38
2022/05/06 01:06:29;;;;;;;;;;;;;;;30.35;23.65;101504.78;5064097;28;914;-34
2022/05/06 01:08:54;;;;;;;;;;;;;;;29.70;23.64;101507.91;5059027;28;869;-34
2022/05/06 01:11:20;;;;;;;;;;;;;;;29.92;23.81;101510.78;5040517;28;958;-35
2022/05/06 01:13:45;;;;;;;;;;;;;;;30.40;23.50;101509.63;5059190;28;817;-33
2022/05/06 01:16:11;;;;;;;;;;;;;;;30.29;23.28;101500.09;5064924;28;862;-38
2022/05/06 01:18:36;;;;;;;;;;;;;;;29.51;24.14;101504.63;5058944;28;739;-35
2022/05/06 01:21:02;;;;;;;;;;;;;;;29.71;24.17;101506.91;5070790;28;890;-36
2022/05/06 01:23:27;;;;;;;;;;;;;;;29.73;24.08;101512.16;5059533;28;1116;-32
2022/05/06 01:25:53;;;;;;;;;;;;;;;29.84;23.90;101513.56;5078040;28;1901;-35
2022/05/06 01:28:19;;;;;;;;;;;;;;;30.27;23.53;101519.28;5072011;28;1510;-35
2022/05/06 01:30:48;;;;;;;;;;;;;;;29.60;24.04;101516.31;5040215;28;1249;-35
2022/05/06 01:33:17;;;;;;;;;;;;;;;29.93;23.89;101516.03;5058854;28;778;-38
2022/05/06 01:35:49;;;;;;;;;;;;;;;30.33;23.04;101509.53;5068450;28;880;-37
2022/05/06 01:38:18;;;;;;;;;;;;;;;30.49;23.27;101504.97;5058476;28;900;-34
2022/05/06 01:40:48;;;;;;;;;;;;;;;29.68;24.10;101508.09;5071295;28;884;-36
2022/05/06 01:43:14;;;;;;;;;;;;;;;29.41;24.60;101513.00;5064753;28;883;-38
2022/05/06 01:45:39;;;;;;;;;;;;;;;29.30;24.78;101511.56;5058864;28;1894;-35
2022/05/06 01:48:05;;;;;;;;;;;;;;;29.32;24.73;101504.13;5058207;28;790;-35
2022/05/06 01:50:33;;;;;;;;;;;;;;;29.36;24.64;101506.47;5051906;28;1464;-33
2022/05/06 01:52:58;;;;;;;;;;;;;;;29.32;24.99;101508.69;5067243;28;815;-37
2022/05/06 01:55:24;;;;;;;;;;;;;;;29.81;24.36;101509.38;5058751;28;801;-34
2022/05/06 01:57:49;;;;;;;;;;;;;;;30.37;23.58;101507.31;5057978;28;909;-34
2022/05/06 02:00:15;;;;;;;;;;;;;;;30.16;23.83;101501.53;5068653;28;1111;-35
2022/05/06 02:02:41;;;;;;;;;;;;;;;30.31;23.62;101512.44;5058191;28;863;-32
2022/05/06 02:05:19;;;;;;;;;;;;;;;30.10;23.48;101513.16;5061974;28;1965;-35
2022/05/06 02:07:45;;;;;;;;;;;;;;;29.76;23.86;101504.47;5064533;28;880;-34
2022/05/06 02:10:10;;;;;;;;;;;;;;;30.24;23.64;101508.81;5057656;28;904;-36
2022/05/06 02:12:36;;;;;;;;;;;;;;;29.94;24.00;101509.59;5057553;28;1503;-33
2022/05/06 02:15:02;;;;;;;;;;;;;;;29.99;24.07;101511.75;5057248;28;849;-36
2022/05/06 02:17:27;;;;;;;;;;;;;;;30.13;23.71;101501.09;5057286;28;838;-36
2022/05/06 02:19:52;;;;;;;;;;;;;;;30.32;23.65;101502.44;5068566;28;849;-37
2022/05/06 02:22:18;;;;;;;;;;;;;;;30.23;23.37;101506.28;5059076;28;758;-37
2022/05/06 02:24:43;;;;;;;;;;;;;;;29.92;23.84;101506.22;5057474;28;1947;-39
2022/05/06 02:27:12;;;;;;;;;;;;;;;29.81;24.07;101512.06;5057956;28;831;-38
2022/05/06 02:29:37;;;;;;;;;;;;;;;30.48;23.53;101506.00;5057456;28;825;-36
2022/05/06 02:34:47;;;;;;;;;;;;;;;29.94;23.97;101506.03;5062831;28;818;-34
2022/05/06 02:37:12;;;;;;;;;;;;;;;29.69;24.43;101506.25;5057720;28;841;-36
2022/05/06 02:39:38;;;;;;;;;;;;;;;30.06;24.28;101498.28;5057154;28;821;-35
2022/05/06 02:42:03;;;;;;;;;;;;;;;29.92;24.38;101502.66;5057317;28;852;-36
2022/05/06 02:44:28;;;;;;;;;;;;;;;30.29;23.95;101500.94;5065839;28;1897;-37
2022/05/06 02:46:54;;;;;;;;;;;;;;;29.94;23.72;101500.59;5057422;28;843;-36
2022/05/06 02:49:19;;;;;;;;;;;;;;;29.65;24.19;101503.03;5061431;28;888;-35
2022/05/06 02:51:44;;;;;;;;;;;;;;;29.51;24.36;101507.34;5059280;28;838;-36
2022/05/06 02:54:10;;;;;;;;;;;;;;;30.14;23.94;101506.34;5057488;28;822;-35
2022/05/06 02:56:35;;;;;;;;;;;;;;;30.32;23.63;101502.44;5065547;28;833;-36
2022/05/06 02:59:00;;;;;;;;;;;;;;;29.94;23.81;101506.03;5066648;28;1021;-33
2022/05/06 03:01:28;;;;;;;;;;;;;;;29.56;24.13;101506.81;5060421;28;1020;-34
2022/05/06 03:03:53;;;;;;;;;;;;;;;29.49;24.20;101505.84;5056723;28;876;-34
2022/05/06 03:06:18;;;;;;;;;;;;;;;29.85;23.99;101513.38;5063031;28;1914;-38
2022/05/06 03:08:44;;;;;;;;;;;;;;;29.87;24.27;101510.47;5060415;28;920;-38
2022/05/06 03:11:09;;;;;;;;;;;;;;;30.17;23.94;101510.53;5061481;28;861;-34
2022/05/06 03:13:34;;;;;;;;;;;;;;;29.96;23.74;101517.53;5056346;28;826;-35
2022/05/06 03:16:00;;;;;;;;;;;;;;;29.59;24.38;101520.03;5056492;28;948;-36
2022/05/06 03:18:26;;;;;;;;;;;;;;;29.64;24.36;101524.91;5075185;28;1263;-37
2022/05/06 03:20:51;;;;;;;;;;;;;;;29.82;24.28;101519.19;5068320;28;1505;-39
2022/05/06 03:23:17;;;;;;;;;;;;;;;29.89;24.32;101514.72;5068319;28;889;-35
2022/05/06 03:25:42;;;;;;;;;;;;;;;30.31;23.51;101517.88;5056212;28;2312;-34
2022/05/06 03:28:07;;;;;;;;;;;;;;;29.80;23.64;101523.94;5056906;28;771;-37
2022/05/06 03:30:39;;;;;;;;;;;;;;;29.43;24.13;101521.81;5057805;28;1104;-39
2022/05/06 03:33:04;;;;;;;;;;;;;;;29.82;24.12;101516.47;5075479;28;880;-34
2022/05/06 03:35:32;;;;;;;;;;;;;;;30.16;23.86;101525.97;5073224;28;836;-36
2022/05/06 03:37:57;;;;;;;;;;;;;;;29.85;24.02;101513.38;5075890;28;813;-38
2022/05/06 03:40:23;;;;;;;;;;;;;;;29.47;24.55;101530.44;5075602;28;809;-34
2022/05/06 03:42:48;;;;;;;;;;;;;;;28.97;19.97;101525.31;5075542;28;873;-36
2022/05/06 03:45:13;;;;;;;;;;;;;;;27.67;17.37;101530.56;5075797;28;1961;-37
2022/05/06 03:47:38;;;;;;;;;;;;;;;26.51;17.91;101531.84;5070411;28;807;-35
2022/05/06 03:52:51;;;;;;;;;;;;;;;25.43;17.79;101523.69;5062355;28;628;-39
2022/05/06 03:55:16;;;;;;;;;;;;;;;24.91;18.84;101531.34;5056107;28;850;-33
2022/05/06 03:57:44;;;;;;;;;;;;;;;26.70;19.65;101529.91;5056004;28;778;-33
2022/05/06 04:00:10;;;;;;;;;;;;;;;27.15;19.13;101541.44;5069824;28;1197;-36
2022/05/06 04:02:36;;;;;;;;;;;;;;;27.67;17.72;101539.53;5055746;28;831;-31
2022/05/06 04:05:02;;;;;;;;;;;;;;;28.18;17.32;101541.22;5061725;28;1957;-31
2022/05/06 04:07:27;;;;;;;;;;;;;;;27.90;17.62;101543.44;5056366;28;805;-32
2022/05/06 04:09:53;;;;;;;;;;;;;;;27.85;17.68;101546.66;5056040;28;862;-35
2022/05/06 04:12:18;;;;;;;;;;;;;;;28.16;17.56;101545.94;5058598;28;862;-34
2022/05/06 04:14:43;;;;;;;;;;;;;;;28.52;17.54;101541.19;5063800;28;831;-36
2022/05/06 04:17:09;;;;;;;;;;;;;;;28.48;17.47;101548.78;5056068;28;778;-32
2022/05/06 04:19:34;;;;;;;;;;;;;;;28.54;17.29;101552.69;5061114;28;816;-34
2022/05/06 04:24:43;;;;;;;;;;;;;;;27.91;17.27;101540.56;5079314;28;1905;-34
2022/05/06 04:27:08;;;;;;;;;;;;;;;27.28;18.06;101543.66;5066594;28;833;-35
2022/05/06 04:29:33;;;;;;;;;;;;;;;28.47;17.83;101542.56;5059950;28;893;-31
2022/05/06 04:31:58;;;;;;;;;;;;;;;28.49;17.80;101545.09;5060013;28;787;-33
2022/05/06 04:34:24;;;;;;;;;;;;;;;28.30;18.15;101539.00;5064086;28;935;-35
2022/05/06 04:36:49;;;;;;;;;;;;;;;28.23;18.12;101541.56;5079144;28;801;-31
2022/05/06 04:39:16;;;;;;;;;;;;;;;28.17;18.25;101552.22;5070135;28;921;-33
2022/05/06 04:41:42;;;;;;;;;;;;;;;27.67;17.77;101549.47;5059360;28;834;-34
2022/05/06 04:44:07;;;;;;;;;;;;;;;27.29;18.36;101539.13;5059650;28;1902;-32
2022/05/06 04:46:32;;;;;;;;;;;;;;;28.96;17.49;101545.28;5059785;28;865;-30
2022/05/06 04:48:57;;;;;;;;;;;;;;;28.33;17.28;101535.97;5059142;28;873;-35
2022/05/06 04:51:23;;;;;;;;;;;;;;;27.23;19.03;101535.19;5071934;28;869;-31
2022/05/06 04:53:50;;;;;;;;;;;;;;;26.99;19.12;101539.50;5059162;28;983;-34
2022/05/06 04:56:16;;;;;;;;;;;;;;;26.73;19.70;101534.97;5058819;28;861;-37
2022/05/06 04:58:41;;;;;;;;;;;;;;;26.54;19.83;101542.34;5063338;28;1017;-31
2022/05/06 05:01:06;;;;;;;;;;;;;;;26.42;20.22;101536.34;5063374;28;1083;-34
2022/05/06 05:03:32;;;;;;;;;;;;;;;26.32;20.43;101535.56;5064072;28;817;-31
2022/05/06 05:05:57;;;;;;;;;;;;;;;26.82;20.28;101536.72;5067991;28;1887;-31
2022/05/06 05:08:22;;;;;;;;;;;;;;;27.45;19.68;101538.28;5059147;28;796;-32
2022/05/06 05:10:48;;;;;;;;;;;;;;;27.82;19.35;101539.72;5059012;28;774;-30
2022/05/06 05:13:14;;;;;;;;;;;;;;;28.60;18.78;101549.28;5059220;28;846;-32
2022/05/06 05:15:39;;;;;;;;;;;;;;;28.66;18.54;101553.16;5059042;28;826;-35
2022/05/06 05:18:04;;;;;;;;;;;;;;;28.36;18.79;101549.16;5064981;28;813;-35
2022/05/06 05:20:30;;;;;;;;;;;;;;;28.29;18.81;101547.28;5070843;28;855;-32
2022/05/06 05:22:55;;;;;;;;;;;;;;;28.24;18.82;101550.53;5059097;28;1489;-34
2022/05/06 05:25:20;;;;;;;;;;;;;;;27.34;19.19;101547.56;5060300;28;1955;-31
2022/05/06 05:27:46;;;;;;;;;;;;;;;27.26;20.41;101556.47;5078127;28;1092;-34
2022/05/06 05:30:11;;;;;;;;;;;;;;;28.94;18.56;101550.88;5068482;28;845;-33
2022/05/06 05:32:37;;;;;;;;;;;;;;;28.41;20.40;101548.63;5058726;28;773;-36
2022/05/06 05:35:02;;;;;;;;;;;;;;;28.10;21.61;101566.41;5062613;28;838;-33
2022/05/06 05:37:28;;;;;;;;;;;;;;;27.84;23.00;101561.19;5065543;28;1139;-35
2022/05/06 05:39:53;;;;;;;;;;;;;;;27.72;22.85;101556.13;5060983;28;822;-34
2022/05/06 05:42:26;;;;;;;;;;;;;;;27.60;23.26;101560.09;5061395;28;897;-34
2022/05/06 05:50:19;;;;;;;;;;;;;;;27.46;23.96;101559.75;5073463;28;812;-34
2022/05/06 05:52:45;;;;;;;;;;;;;;;27.43;23.82;101551.97;5077207;28;895;-33
2022/05/06 05:55:10;;;;;;;;;;;;;;;27.37;23.93;101555.34;5072652;28;859;-33
2022/05/06 05:57:35;;;;;;;;;;;;;;;27.43;24.10;101548.41;5058473;28;786;-36
2022/05/06 06:00:01;;;;;;;;;;;;;;;27.43;24.06;101545.72;5064512;28;1132;-33
2022/05/06 06:02:26;;;;;;;;;;;;;;;27.43;24.09;101545.72;5069402;28;1291;-34
2022/05/06 06:04:52;;;;;;;;;;;;;;;27.54;24.83;101549.97;5074769;28;1906;-30
2022/05/06 06:07:18;;;;;;;;;;;;;;;27.40;24.48;101541.50;5064207;28;1060;-33
2022/05/06 06:09:43;;;;;;;;;;;;;;;27.39;24.45;101547.94;5058101;28;1494;-35
2022/05/06 06:12:09;;;;;;;;;;;;;;;27.37;24.17;101547.22;5058252;28;823;-32
2022/05/06 06:14:34;;;;;;;;;;;;;;;27.30;24.55;101548.91;5058001;28;751;-35
2022/05/06 06:16:59;;;;;;;;;;;;;;;27.10;24.71;101549.19;5058062;28;901;-32
2022/05/06 06:19:25;;;;;;;;;;;;;;;27.07;24.66;101553.06;5058474;28;807;-35
2022/05/06 06:21:50;;;;;;;;;;;;;;;27.08;24.96;101556.59;5065508;28;805;-31
2022/05/06 06:24:15;;;;;;;;;;;;;;;27.13;24.81;101554.25;5057816;28;1894;-32
2022/05/06 06:26:40;;;;;;;;;;;;;;;27.29;24.79;101552.63;5057507;28;828;-33
2022/05/06 06:29:06;;;;;;;;;;;;;;;27.28;24.54;101553.63;5057605;28;940;-33
2022/05/06 06:31:32;;;;;;;;;;;;;;;27.18;25.21;101559.16;5057795;28;833;-35
2022/05/06 06:34:00;;;;;;;;;;;;;;;27.20;25.17;101557.13;5070088;28;790;-34
2022/05/06 06:36:25;;;;;;;;;;;;;;;27.19;25.23;101555.47;5066419;28;793;-34
2022/05/06 06:38:51;;;;;;;;;;;;;;;27.22;25.26;101555.97;5057459;28;857;-32
2022/05/06 06:41:16;;;;;;;;;;;;;;;27.21;25.20;101548.88;5057256;28;1140;-32
2022/05/06 06:43:41;;;;;;;;;;;;;;;27.17;25.36;101549.38;5056604;28;991;-33
2022/05/06 06:46:07;;;;;;;;;;;;;;;27.24;24.90;101545.84;5065381;28;1880;-33
2022/05/06 06:48:32;;;;;;;;;;;;;;;27.23;24.84;101560.38;5057173;28;818;-33
2022/05/06 06:50:58;;;;;;;;;;;;;;;27.25;24.87;101560.19;5063697;28;987;-34
2022/05/06 06:53:23;;;;;;;;;;;;;;;27.23;25.19;101564.91;5057074;28;755;-34
2022/05/06 06:55:49;;;;;;;;;;;;;;;27.61;24.56;101559.94;5056963;28;829;-32
2022/05/06 06:58:14;;;;;;;;;;;;;;;27.75;24.62;101554.91;5057289;28;914;-33
2022/05/06 07:00:42;;;;;;;;;;;;;;;27.35;25.34;101560.06;5069029;28;1239;-32
2022/05/06 07:03:07;;;;;;;;;;;;;;;27.36;25.04;101559.88;5057264;28;877;-34
2022/05/06 07:05:33;;;;;;;;;;;;;;;27.40;24.87;101560.41;5069571;28;1960;-33
2022/05/06 07:13:26;;;;;;;;;;;;;;;27.45;25.69;101558.06;5074345;28;1213;-31
2022/05/06 07:15:51;;;;;;;;;;;;;;;27.46;25.50;101562.44;5071420;28;1316;-37
2022/05/06 07:18:17;;;;;;;;;;;;;;;28.07;25.17;101566.75;5057575;28;1485;-34
2022/05/06 07:20:42;;;;;;;;;;;;;;;27.62;25.39;101566.19;5074422;28;1506;-33
2022/05/06 07:23:08;;;;;;;;;;;;;;;27.59;25.59;101571.94;5073070;28;1395;-35
2022/05/06 07:25:33;;;;;;;;;;;;;;;27.61;25.34;101578.84;5075884;28;1913;-35
2022/05/06 07:27:58;;;;;;;;;;;;;;;27.84;25.28;101564.72;5075638;28;889;-33
2022/05/06 07:30:23;;;;;;;;;;;;;;;27.52;25.95;101579.88;5075605;28;1549;-35
2022/05/06 07:32:49;;;;;;;;;;;;;;;28.12;24.95;101579.78;5075796;28;821;-35
2022/05/06 07:35:14;;;;;;;;;;;;;;;28.45;24.92;101574.34;5070359;28;901;-35
2022/05/06 07:37:41;;;;;;;;;;;;;;;28.18;24.49;101583.66;5063659;28;1443;-37
2022/05/06 07:40:06;;;;;;;;;;;;;;;28.07;23.79;101571.31;5056321;28;850;-32
2022/05/06 07:42:33;;;;;;;;;;;;;;;28.08;23.94;101575.69;5056292;28;800;-36
2022/05/06 07:44:58;;;;;;;;;;;;;;;28.19;23.81;101583.50;5056148;28;1902;-39
2022/05/06 07:47:24;;;;;;;;;;;;;;;28.29;24.31;101579.75;5056047;28;850;-36
2022/05/06 07:49:49;;;;;;;;;;;;;;;28.33;24.49;101589.25;5066825;28;755;-35
2022/05/06 07:52:15;;;;;;;;;;;;;;;28.33;24.35;101578.41;5056715;28;841;-31
2022/05/06 07:54:40;;;;;;;;;;;;;;;28.38;24.27;101583.34;5056133;28;819;-35
2022/05/06 07:57:05;;;;;;;;;;;;;;;28.45;24.11;101577.06;5056068;28;881;-36
2022/05/06 07:59:30;;;;;;;;;;;;;;;28.43;24.27;101580.94;5066676;28;1033;-37
2022/05/06 08:04:40;;;;;;;;;;;;;;;28.45;24.06;101576.22;5061947;28;1914;-35
2022/05/06 08:07:06;;;;;;;;;;;;;;;28.42;24.43;101580.13;5075384;28;853;-34
2022/05/06 08:09:32;;;;;;;;;;;;;;;28.44;23.86;101580.78;5075281;28;813;-35
2022/05/06 08:11:57;;;;;;;;;;;;;;;28.48;24.01;101582.13;5075189;28;861;-37
2022/05/06 08:14:22;;;;;;;;;;;;;;;28.44;24.38;101580.78;5075143;28;854;-34
2022/05/06 08:16:48;;;;;;;;;;;;;;;28.43;24.26;101583.66;5062891;28;765;-37
2022/05/06 08:19:13;;;;;;;;;;;;;;;28.53;24.13;101588.91;5055905;28;856;-35
2022/05/06 08:21:39;;;;;;;;;;;;;;;28.46;23.84;101589.56;5062610;28;841;-33
2022/05/06 08:24:04;;;;;;;;;;;;;;;28.52;23.76;101589.91;5055677;28;806;-37
2022/05/06 08:26:30;;;;;;;;;;;;;;;28.47;24.02;101588.56;5056159;28;1949;-34
2022/05/06 08:28:55;;;;;;;;;;;;;;;28.51;23.78;101586.34;5063016;28;851;-37
2022/05/06 08:31:20;;;;;;;;;;;;;;;28.56;24.11;101594.78;5056093;28;743;-33
2022/05/06 08:33:46;;;;;;;;;;;;;;;28.50;23.39;101584.66;5055751;28;862;-34
2022/05/06 08:36:11;;;;;;;;;;;;;;;28.56;23.88;101586.66;5072119;28;947;-38
2022/05/06 08:38:36;;;;;;;;;;;;;;;28.59;23.64;101580.91;5074836;28;1237;-36
2022/05/06 08:41:02;;;;;;;;;;;;;;;28.57;23.52;101592.94;5072136;28;862;-35
2022/05/06 08:43:27;;;;;;;;;;;;;;;28.60;23.73;101587.16;5056049;28;746;-33
2022/05/06 08:51:22;;;;;;;;;;;;;;;28.59;23.54;101585.50;5065305;28;1135;-36
2022/05/06 08:53:48;;;;;;;;;;;;;;;28.66;23.54;101582.94;5055195;28;1451;-32
2022/05/06 08:56:13;;;;;;;;;;;;;;;28.55;23.59;101576.88;5074537;28;1538;-34
2022/05/06 08:58:40;;;;;;;;;;;;;;;28.56;23.34;101567.72;5071455;28;1309;-33
2022/05/06 09:01:06;;;;;;;;;;;;;;;28.59;23.40;101569.25;5055142;28;1029;-37
2022/05/06 09:03:32;;;;;;;;;;;;;;;28.69;23.16;101578.03;5055886;28;822;-33
2022/05/06 09:05:58;;;;;;;;;;;;;;;28.53;23.35;101578.91;5072787;28;1963;-34
2022/05/06 09:08:33;;;;;;;;;;;;;;;28.54;23.31;101577.91;5060104;28;848;-36
2022/05/06 09:11:07;;;;;;;;;;;;;;;28.55;22.99;101565.19;5041310;28;772;-36
2022/05/06 09:13:33;;;;;;;;;;;;;;;28.54;23.21;101577.91;5072805;28;802;-36
2022/05/06 09:19:09;;;;;;;;;;;;;;;28.54;23.32;101582.47;5068992;28;790;-33
2022/05/06 09:21:34;;;;;;;;;;;;;;;28.51;23.23;101564.69;5077533;28;814;-34
2022/05/06 09:24:14;;;;;;;;;;;;;;;28.59;22.93;101570.06;5077804;28;822;-36
2022/05/06 09:26:39;;;;;;;;;;;;;;;28.80;23.35;101573.25;5077356;28;1952;-34
2022/05/06 09:29:05;;;;;;;;;;;;;;;28.92;23.29;101573.72;5063961;28;1459;-37
2022/05/06 09:31:30;;;;;;;;;;;;;;;28.72;23.39;101568.69;5065290;28;801;-38
2022/05/06 09:33:55;;;;;;;;;;;;;;;28.64;23.46;101566.03;5077167;28;965;-38
2022/05/06 09:36:24;;;;;;;;;;;;;;;28.72;23.48;101569.56;5040715;28;1224;-36
2022/05/06 09:38:59;;;;;;;;;;;;;;;28.42;23.47;101565.72;5058531;28;835;-36
2022/05/06 09:41:25;;;;;;;;;;;;;;;28.62;23.58;101560.78;5072246;28;804;-35
2022/05/06 09:44:00;;;;;;;;;;;;;;;28.68;23.54;101565.50;5071413;28;766;-34
2022/05/06 09:46:25;;;;;;;;;;;;;;;28.73;23.06;101565.81;5063373;28;1906;-32
2022/05/06 09:48:57;;;;;;;;;;;;;;;28.64;23.29;101568.72;5058458;28;915;-35
2022/05/06 09:51:30;;;;;;;;;;;;;;;28.73;23.29;101557.69;5073500;28;790;-34
2022/05/06 09:53:55;;;;;;;;;;;;;;;28.62;22.96;101557.22;5058669;28;890;-33
2022/05/06 09:56:21;;;;;;;;;;;;;;;28.68;22.81;101560.06;5077582;28;769;-33
2022/05/06 09:58:46;;;;;;;;;;;;;;;28.58;22.17;101576.53;5066781;28;1061;-33
2022/05/06 10:01:13;;;;;;;;;;;;;;;28.58;22.48;101564.84;5063253;28;1029;-36
2022/05/06 10:03:39;;;;;;;;;;;;;;;28.52;22.37;101568.25;5058276;28;877;-35
2022/05/06 10:06:06;;;;;;;;;;;;;;;28.44;22.27;101563.69;5064968;28;1906;-33
2022/05/06 10:08:31;;;;;;;;;;;;;;;28.39;21.95;101558.81;5058193;28;846;-36
2022/05/06 10:10:59;;;;;;;;;;;;;;;28.42;22.04;101569.28;5070358;28;1006;-37
2022/05/06 10:13:25;;;;;;;;;;;;;;;28.53;22.39;101570.78;5058090;28;801;-33
2022/05/06 10:15:51;;;;;;;;;;;;;;;28.51;22.08;101570.09;5058123;28;842;-35
2022/05/06 10:18:32;;;;;;;;;;;;;;;28.48;22.22;101571.31;5056703;28;790;-36
2022/05/06 10:20:58;;;;;;;;;;;;;;;28.23;23.36;101574.00;5072888;28;979;-35
2022/05/06 10:23:27;;;;;;;;;;;;;;;28.18;22.47;101579.09;5068369;28;884;-34
2022/05/06 10:25:55;;;;;;;;;;;;;;;28.41;22.85;101575.69;5039418;28;1906;-34
2022/05/06 10:34:10;;;;;;;;;;;;;;;28.40;22.47;101574.03;5059139;28;872;-34
2022/05/06 10:36:51;;;;;;;;;;;;;;;28.36;22.66;101573.50;5067796;28;837;-33
2022/05/06 10:39:20;;;;;;;;;;;;;;;28.45;22.73;101568.94;5057433;28;802;-37
2022/05/06 10:42:00;;;;;;;;;;;;;;;28.38;22.70;101569.81;5057499;28;1257;-35
2022/05/06 10:44:33;;;;;;;;;;;;;;;28.35;22.37;101570.97;5057136;28;1894;-35
2022/05/06 10:46:58;;;;;;;;;;;;;;;28.30;22.66;101570.63;5070032;28;781;-37
2022/05/06 10:49:38;;;;;;;;;;;;;;;28.42;22.83;101566.59;5050045;28;1173;-34
2022/05/06 10:52:26;;;;;;;;;;;;;;;28.10;23.04;101565.56;5056820;28;846;-34
2022/05/06 10:54:53;;;;;;;;;;;;;;;28.19;23.31;101569.97;5057159;28;788;-34
2022/05/06 10:57:27;;;;;;;;;;;;;;;28.14;23.47;101569.63;5057227;28;787;-36
2022/05/06 10:59:56;;;;;;;;;;;;;;;28.23;23.25;101571.31;5067686;28;1200;-37
2022/05/06 11:02:22;;;;;;;;;;;;;;;28.02;24.15;101568.28;5064922;28;706;-38
2022/05/06 11:04:50;;;;;;;;;;;;;;;28.14;23.45;101566.06;5061748;28;1979;-33
2022/05/06 11:07:17;;;;;;;;;;;;;;;28.07;24.01;101574.03;5075870;28;875;-32
2022/05/06 11:09:42;;;;;;;;;;;;;;;28.20;23.73;101565.38;5076256;28;865;-36
2022/05/06 11:12:08;;;;;;;;;;;;;;;28.15;23.57;101576.72;5076506;28;811;-33
2022/05/06 11:14:33;;;;;;;;;;;;;;;28.23;23.92;101571.31;5064496;28;900;-31
2022/05/06 11:17:18;;;;;;;;;;;;;;;28.11;23.71;101573.50;5057022;28;978;-34
2022/05/06 11:19:43;;;;;;;;;;;;;;;28.03;23.72;101561.88;5074361;28;967;-33
2022/05/06 11:22:08;;;;;;;;;;;;;;;28.16;23.41;101562.19;5056820;28;829;-34
2022/05/06 11:24:34;;;;;;;;;;;;;;;28.15;23.57;101565.06;5056789;28;1906;-31
2022/05/06 11:27:14;;;;;;;;;;;;;;;27.99;23.58;101564.06;5062689;28;869;-34
2022/05/06 11:29:49;;;;;;;;;;;;;;;27.91;24.02;101561.34;5069279;28;731;-35
2022/05/06 11:32:15;;;;;;;;;;;;;;;27.99;23.42;101564.88;5076011;28;891;-33
2022/05/06 11:35:02;;;;;;;;;;;;;;;28.01;23.71;101563.91;5069298;28;860;-34
2022/05/06 11:37:28;;;;;;;;;;;;;;;27.93;23.78;101559.31;5058710;28;905;-33
2022/05/06 11:40:18;;;;;;;;;;;;;;;27.73;24.12;101551.53;5063540;28;898;-36
2022/05/06 11:42:38;;;;;;;;;;;;;;;28.03;24.29;101556.47;5056042;28;1267;-34
2022/05/06 11:47:49;;;;;;;;;;;;;;;27.99;24.08;101553.25;5029939;28;1286;-33
2022/05/06 11:50:15;;;;;;;;;;;;;;;28.10;23.94;101555.59;5067831;28;1383;-37
2022/05/06 11:52:40;;;;;;;;;;;;;;;28.27;24.17;101550.19;5048261;28;1076;-34
2022/05/06 11:55:05;;;;;;;;;;;;;;;27.97;24.53;101536.34;5056191;28;808;-33
2022/05/06 11:57:31;;;;;;;;;;;;;;;27.92;24.69;101538.69;5055657;28;1477;-34
2022/05/06 11:59:56;;;;;;;;;;;;;;;27.93;24.58;101541.22;5045055;28;1203;-36
2022/05/06 12:02:21;;;;;;;;;;;;;;;28.16;24.32;101545.13;5075403;28;1014;-36
2022/05/06 12:04:46;;;;;;;;;;;;;;;28.53;24.18;101537.47;5072258;28;1909;-34
2022/05/06 12:07:12;;;;;;;;;;;;;;;28.19;24.55;101533.97;5075242;28;787;-34
2022/05/06 12:09:43;;;;;;;;;;;;;;;28.02;24.46;101533.97;5057076;28;812;-36
2022/05/06 12:12:10;;;;;;;;;;;;;;;28.18;24.34;101526.84;5074856;28;869;-32
2022/05/06 12:14:35;;;;;;;;;;;;;;;28.02;24.75;101533.97;5075144;28;806;-32
2022/05/06 12:17:01;;;;;;;;;;;;;;;28.01;24.82;101532.25;5075033;28;813;-34
2022/05/06 12:19:33;;;;;;;;;;;;;;;28.01;24.88;101532.25;5061871;28;880;-33
2022/05/06 12:22:15;;;;;;;;;;;;;;;27.95;24.63;101527.53;5074980;28;843;-36
2022/05/06 12:24:45;;;;;;;;;;;;;;;27.94;25.03;101525.88;5075119;28;1897;-35
2022/05/06 12:27:10;;;;;;;;;;;;;;;27.88;24.78;101527.38;5075346;28;817;-34
2022/05/06 12:29:38;;;;;;;;;;;;;;;27.74;25.44;101524.31;5074019;28;1134;-35
2022/05/06 12:32:04;;;;;;;;;;;;;;;27.97;24.72;101520.13;5075226;28;790;-35
2022/05/06 12:34:31;;;;;;;;;;;;;;;27.94;24.95;101529.44;5074685;28;1062;-33
2022/05/06 12:37:12;;;;;;;;;;;;;;;27.92;25.07;101526.03;5069066;28;1312;-35
2022/05/06 12:39:41;;;;;;;;;;;;;;;27.54;25.64;101520.25;5066097;28;1568;-32
2022/05/06 12:42:12;;;;;;;;;;;;;;;27.73;25.42;101516.38;5078379;28;834;-36
2022/05/06 12:44:38;;;;;;;;;;;;;;;27.87;25.20;101520.28;5062600;28;1905;-32
2022/05/06 12:49:59;;;;;;;;;;;;;;;27.67;25.46;101519.75;5069427;28;891;-32
2022/05/06 12:52:25;;;;;;;;;;;;;;;27.79;25.41;101521.16;5059635;28;734;-32
2022/05/06 12:54:50;;;;;;;;;;;;;;;27.71;25.34;101519.25;5065271;28;889;-36
2022/05/06 12:57:15;;;;;;;;;;;;;;;27.59;25.51;101518.72;5066457;28;808;-36
2022/05/06 12:59:41;;;;;;;;;;;;;;;27.69;25.65;101517.75;5070519;28;1301;-33
2022/05/06 13:02:07;;;;;;;;;;;;;;;27.59;25.75;101517.88;5060255;28;841;-33
2022/05/06 13:04:33;;;;;;;;;;;;;;;27.68;25.65;101511.50;5065346;28;1981;-33
2022/05/06 13:06:58;;;;;;;;;;;;;;;27.57;25.41;101512.66;5061652;28;770;-35
2022/05/06 13:09:24;;;;;;;;;;;;;;;27.57;25.63;101507.25;5067472;28;1831;-35
2022/05/06 13:11:50;;;;;;;;;;;;;;;27.62;25.64;101506.75;5071613;28;1254;-32
2022/05/06 13:14:15;;;;;;;;;;;;;;;27.57;25.88;101504.53;5059623;28;785;-32
2022/05/06 13:16:40;;;;;;;;;;;;;;;27.53;25.46;101500.47;5061749;28;1126;-35
2022/05/06 13:19:09;;;;;;;;;;;;;;;27.67;25.97;101500.81;5078375;28;1463;-35
2022/05/06 13:21:34;;;;;;;;;;;;;;;27.70;25.34;101493.25;5068324;28;951;-35
2022/05/06 13:24:00;;;;;;;;;;;;;;;27.45;25.57;101487.81;5059207;28;878;-35
2022/05/06 13:26:25;;;;;;;;;;;;;;;27.74;25.35;101482.97;5058758;28;1985;-34
2022/05/06 13:28:50;;;;;;;;;;;;;;;27.77;25.32;101487.16;5060788;28;1130;-34
2022/05/06 13:31:16;;;;;;;;;;;;;;;27.66;25.28;101491.84;5078747;28;769;-34